createdAt,value
2023-01-15T00:02:13.051Z,7.10
2023-01-15T00:05:09.921Z,7.00
2023-01-15T00:08:06.696Z,7.10
2023-01-15T00:11:04.484Z,7.10
2023-01-15T00:14:01.360Z,7.10
2023-01-15T00:16:58.146Z,7.10
2023-01-15T00:19:54.947Z,7.20
2023-01-15T00:22:51.739Z,7.20
2023-01-15T00:26:07.026Z,7.20
2023-01-15T00:29:04.122Z,7.30
2023-01-15T00:32:03.203Z,7.30
2023-01-15T00:35:00.554Z,7.30
2023-01-15T00:37:57.323Z,7.30
2023-01-15T00:40:54.075Z,7.40
2023-01-15T00:43:51.013Z,7.30
2023-01-15T00:46:48.339Z,7.30
2023-01-15T00:49:45.289Z,7.30
2023-01-15T00:52:42.300Z,7.30
2023-01-15T00:55:39.092Z,7.30
2023-01-15T00:58:35.855Z,7.40
2023-01-15T01:01:32.916Z,7.50
2023-01-15T01:04:29.830Z,7.40
2023-01-15T01:07:26.641Z,7.40
2023-01-15T01:10:23.517Z,7.40
2023-01-15T01:13:20.279Z,7.40
2023-01-15T01:16:21.941Z,7.50
2023-01-15T01:19:21.434Z,7.50
2023-01-15T01:22:18.186Z,7.50
2023-01-15T01:25:15.067Z,7.70
2023-01-15T01:28:11.868Z,7.70
2023-01-15T01:31:09.586Z,7.60
2023-01-15T01:34:06.869Z,7.60
2023-01-15T01:37:03.689Z,7.60
2023-01-15T01:40:00.448Z,7.70
2023-01-15T01:42:57.224Z,7.70
2023-01-15T01:45:54.089Z,7.70
2023-01-15T01:48:54.095Z,7.70
2023-01-15T01:51:57.567Z,7.60
2023-01-15T01:54:54.420Z,7.60
2023-01-15T01:57:54.716Z,7.60
2023-01-15T02:00:52.569Z,7.70
2023-01-15T02:03:50.008Z,7.70
2023-01-15T02:06:46.801Z,7.70
2023-01-15T02:09:43.645Z,7.70
2023-01-15T02:12:42.441Z,7.70
2023-01-15T02:15:47.179Z,7.70
2023-01-15T02:18:50.211Z,7.80
2023-01-15T02:22:00.229Z,7.80
2023-01-15T02:25:19.526Z,7.70
2023-01-15T02:28:37.678Z,7.70
2023-01-15T02:31:37.618Z,7.80
2023-01-15T02:34:36.518Z,7.90
2023-01-15T02:37:37.151Z,7.80
2023-01-15T02:40:35.443Z,7.70
2023-01-15T02:43:35.401Z,7.80
2023-01-15T02:46:36.005Z,7.80
2023-01-15T02:49:33.855Z,8.00
2023-01-15T02:52:35.274Z,8.10
2023-01-15T02:55:35.098Z,7.90
2023-01-15T02:58:36.413Z,7.90
2023-01-15T03:01:41.721Z,7.90
2023-01-15T03:04:43.812Z,7.90
2023-01-15T03:07:50.742Z,7.90
2023-01-15T03:10:56.564Z,7.90
2023-01-15T03:14:14.425Z,8.00
2023-01-15T03:17:24.184Z,7.90
2023-01-15T03:20:25.233Z,8.00
2023-01-15T03:23:23.785Z,8.10
2023-01-15T03:26:20.557Z,8.10
2023-01-15T03:29:17.778Z,8.00
2023-01-15T03:32:16.290Z,8.00
2023-01-15T03:35:46.665Z,8.20
2023-01-15T03:38:46.915Z,8.20
2023-01-15T03:41:59.939Z,8.10
2023-01-15T03:45:08.893Z,8.20
2023-01-15T03:48:16.176Z,8.20
2023-01-15T03:51:20.081Z,8.20
2023-01-15T03:54:26.885Z,8.20
2023-01-15T03:57:35.240Z,7.90
2023-01-15T04:00:56.608Z,7.60
2023-01-15T04:03:54.266Z,7.40
2023-01-15T04:06:51.347Z,7.20
2023-01-15T04:09:48.381Z,7.10
2023-01-15T04:12:45.147Z,7.10
2023-01-15T04:15:41.931Z,7.00
2023-01-15T04:18:38.681Z,7.00
2023-01-15T04:21:35.477Z,7.00
2023-01-15T04:24:32.262Z,7.00
2023-01-15T04:27:29.078Z,6.90
2023-01-15T04:30:25.845Z,6.90
2023-01-15T04:33:22.601Z,6.80
2023-01-15T04:36:19.630Z,6.70
2023-01-15T04:39:16.402Z,6.60
2023-01-15T04:42:32.652Z,6.50
2023-01-15T04:45:29.433Z,6.40
2023-01-15T04:48:26.380Z,6.40
2023-01-15T04:51:23.170Z,6.20
2023-01-15T04:54:20.301Z,6.10
2023-01-15T04:57:17.168Z,6.00
2023-01-15T05:00:14.102Z,6.00
2023-01-15T05:03:12.212Z,6.00
2023-01-15T05:06:09.425Z,5.80
2023-01-15T05:09:06.399Z,5.80
2023-01-15T05:12:03.268Z,5.80
2023-01-15T05:15:00.161Z,5.70
2023-01-15T05:17:57.013Z,5.70
2023-01-15T05:20:53.813Z,5.80
2023-01-15T05:23:52.303Z,5.70
2023-01-15T05:26:49.398Z,5.70
2023-01-15T05:29:46.220Z,5.60
2023-01-15T05:32:42.955Z,5.60
2023-01-15T05:35:39.720Z,5.50
2023-01-15T05:38:37.071Z,5.50
2023-01-15T05:41:49.088Z,5.50
2023-01-15T05:44:45.915Z,5.50
2023-01-15T05:47:42.667Z,5.60
2023-01-15T05:50:39.400Z,5.50
2023-01-15T05:53:36.145Z,5.30
2023-01-15T05:56:36.272Z,5.40
2023-01-15T05:59:33.783Z,5.30
2023-01-15T06:02:35.828Z,5.20
2023-01-15T06:05:32.589Z,5.20
2023-01-15T06:08:29.532Z,5.10
2023-01-15T06:11:26.348Z,5.10
2023-01-15T06:14:23.140Z,5.00
2023-01-15T06:17:20.444Z,4.90
2023-01-15T06:20:17.598Z,4.90
2023-01-15T06:23:14.424Z,4.80
2023-01-15T06:26:16.932Z,4.70
2023-01-15T06:29:17.560Z,4.70
2023-01-15T06:32:14.392Z,4.40
2023-01-15T06:35:12.353Z,4.40
2023-01-15T06:38:09.086Z,4.40
2023-01-15T06:41:30.002Z,4.40
2023-01-15T06:44:46.835Z,4.30
2023-01-15T06:47:43.629Z,4.10
2023-01-15T06:50:40.378Z,4.10
2023-01-15T06:53:37.152Z,3.90
2023-01-15T06:56:33.902Z,3.90
2023-01-15T06:59:31.119Z,3.90
2023-01-15T07:02:27.889Z,3.90
2023-01-15T07:05:24.645Z,3.80
2023-01-15T07:08:21.373Z,3.80
2023-01-15T07:11:18.112Z,3.70
2023-01-15T07:14:28.009Z,3.70
2023-01-15T07:17:24.726Z,3.70
2023-01-15T07:20:21.979Z,3.60
2023-01-15T07:23:18.721Z,3.70
2023-01-15T07:26:15.503Z,3.70
2023-01-15T07:29:12.394Z,3.60
2023-01-15T07:32:09.849Z,3.60
2023-01-15T07:35:06.710Z,3.70
2023-01-15T07:38:03.457Z,3.60
2023-01-15T07:41:19.376Z,3.60
2023-01-15T07:44:34.751Z,3.60
2023-01-15T07:47:50.176Z,3.60
2023-01-15T07:50:47.525Z,3.70
2023-01-15T07:53:44.265Z,3.70
2023-01-15T07:56:41.021Z,3.70
2023-01-15T07:59:37.873Z,3.70
2023-01-15T08:02:34.616Z,3.60
2023-01-15T08:05:31.363Z,3.50
2023-01-15T08:08:28.186Z,3.30
2023-01-15T08:11:43.650Z,3.30
2023-01-15T08:14:59.239Z,3.40
2023-01-15T08:17:56.024Z,3.40
2023-01-15T08:20:52.791Z,3.30
2023-01-15T08:23:51.033Z,3.40
2023-01-15T08:26:48.495Z,3.50
2023-01-15T08:29:45.323Z,3.50
2023-01-15T08:32:42.155Z,3.60
2023-01-15T08:35:38.910Z,3.60
2023-01-15T08:38:35.659Z,3.60
2023-01-15T08:41:32.399Z,3.70
2023-01-15T08:44:29.208Z,3.60
2023-01-15T08:47:25.967Z,3.60
2023-01-15T08:50:22.725Z,3.40
2023-01-15T08:53:19.788Z,3.20
2023-01-15T08:56:18.927Z,3.10
2023-01-15T08:59:15.684Z,3.10
2023-01-15T09:02:14.297Z,3.10
2023-01-15T09:05:11.071Z,3.20
2023-01-15T09:08:08.251Z,3.00
2023-01-15T09:11:06.134Z,2.90
2023-01-15T09:14:02.875Z,3.00
2023-01-15T09:16:59.745Z,3.00
2023-01-15T09:19:56.507Z,3.20
2023-01-15T09:22:53.263Z,3.30
2023-01-15T09:26:06.117Z,3.30
2023-01-15T09:29:04.207Z,3.20
2023-01-15T09:32:02.667Z,3.10
2023-01-15T09:34:59.589Z,3.00
2023-01-15T09:37:56.405Z,2.90
2023-01-15T09:40:59.489Z,3.00
2023-01-15T09:44:07.435Z,3.10
2023-01-15T09:47:34.579Z,3.10
2023-01-15T09:50:44.168Z,3.00
2023-01-15T09:54:07.622Z,3.00
2023-01-15T09:57:07.472Z,2.90
2023-01-15T10:00:06.200Z,3.10
2023-01-15T10:03:29.161Z,3.30
2023-01-15T10:06:29.020Z,3.30
2023-01-15T10:09:34.985Z,3.10
2023-01-15T10:12:35.316Z,3.30
2023-01-15T10:15:46.608Z,3.30
2023-01-15T10:18:43.556Z,3.30
2023-01-15T10:22:02.495Z,3.30
2023-01-15T10:25:01.550Z,3.10
2023-01-15T10:28:04.345Z,3.10
2023-01-15T10:31:12.486Z,3.30
2023-01-15T10:34:33.432Z,3.20
2023-01-15T10:37:45.876Z,3.20
2023-01-15T10:41:07.594Z,3.20
2023-01-15T10:44:30.351Z,3.10
2023-01-15T10:47:35.270Z,3.00
2023-01-15T10:50:32.571Z,3.10
2023-01-15T10:53:34.649Z,3.10
2023-01-15T10:56:35.833Z,3.10
2023-01-15T10:59:56.955Z,3.00
2023-01-15T11:03:15.046Z,3.10
2023-01-15T11:06:23.227Z,3.10
2023-01-15T11:09:30.892Z,3.10
2023-01-15T11:12:48.194Z,3.10
2023-01-15T11:16:05.599Z,3.20
2023-01-15T11:19:23.319Z,3.10
2023-01-15T11:22:20.444Z,3.30
2023-01-15T11:25:31.521Z,3.20
2023-01-15T11:28:43.287Z,3.20
2023-01-15T11:31:41.156Z,3.10
2023-01-15T11:34:40.295Z,3.10
2023-01-15T11:37:37.096Z,3.10
2023-01-15T11:40:34.481Z,3.00
2023-01-15T11:43:50.483Z,2.90
2023-01-15T11:47:05.804Z,3.00
2023-01-15T11:50:21.899Z,2.90
2023-01-15T11:53:29.328Z,3.00
2023-01-15T11:56:28.486Z,3.00
2023-01-15T11:59:25.350Z,3.20
2023-01-15T12:02:34.564Z,3.10
2023-01-15T12:05:34.310Z,3.30
2023-01-15T12:08:53.224Z,3.10
2023-01-15T12:12:02.684Z,3.00
2023-01-15T12:14:59.437Z,3.00
2023-01-15T12:18:07.068Z,3.10
2023-01-15T12:21:13.406Z,3.00
2023-01-15T12:24:51.631Z,3.10
2023-01-15T12:27:59.766Z,3.20
2023-01-15T12:31:16.449Z,3.20
2023-01-15T12:34:24.329Z,3.40
2023-01-15T12:37:26.175Z,3.30
2023-01-15T12:40:27.515Z,3.20
2023-01-15T12:43:45.716Z,3.30
2023-01-15T12:46:44.448Z,3.20
2023-01-15T12:49:47.422Z,3.20
2023-01-15T12:52:46.311Z,3.40
2023-01-15T12:56:07.229Z,3.40
2023-01-15T12:59:06.178Z,3.40
2023-01-15T13:02:29.770Z,3.50
2023-01-15T13:05:32.716Z,3.40
2023-01-15T13:08:46.295Z,3.50
2023-01-15T13:11:43.043Z,3.40
2023-01-15T13:14:40.015Z,3.40
2023-01-15T13:18:14.592Z,3.40
2023-01-15T13:21:16.227Z,3.40
2023-01-15T13:24:41.407Z,3.60
2023-01-15T13:27:47.563Z,3.50
2023-01-15T13:31:02.831Z,3.50
2023-01-15T13:34:04.773Z,3.60
2023-01-15T13:37:33.968Z,3.50
2023-01-15T13:40:34.860Z,3.50
2023-01-15T13:43:39.451Z,3.50
2023-01-15T13:46:36.221Z,3.60
2023-01-15T13:49:36.047Z,3.60
2023-01-15T13:52:37.084Z,3.60
2023-01-15T13:55:40.284Z,3.80
2023-01-15T13:58:51.698Z,3.70
2023-01-15T14:01:48.554Z,3.70
2023-01-15T14:04:45.418Z,3.70
2023-01-15T14:07:42.190Z,3.70
2023-01-15T14:10:39.472Z,3.60
2023-01-15T14:14:09.329Z,3.50
2023-01-15T14:17:30.787Z,3.50
2023-01-15T14:20:37.783Z,3.50
2023-01-15T14:23:43.380Z,3.50
2023-01-15T14:26:47.356Z,3.60
2023-01-15T14:30:03.262Z,3.60
2023-01-15T14:33:28.520Z,3.60
2023-01-15T14:36:30.516Z,3.60
2023-01-15T14:39:40.452Z,3.60
2023-01-15T14:42:58.960Z,3.60
2023-01-15T14:45:55.973Z,3.60
2023-01-15T14:48:52.833Z,3.70
2023-01-15T14:51:50.780Z,3.70
2023-01-15T14:54:47.981Z,3.60
2023-01-15T14:57:57.262Z,3.60
2023-01-15T15:01:07.308Z,3.60
2023-01-15T15:04:20.980Z,3.60
2023-01-15T15:07:27.635Z,3.50
2023-01-15T15:10:44.883Z,3.50
2023-01-15T15:13:46.621Z,3.50
2023-01-15T15:16:50.514Z,3.50
2023-01-15T15:19:55.335Z,3.50
2023-01-15T15:22:56.569Z,3.40
2023-01-15T15:26:05.547Z,3.40
2023-01-15T15:29:11.266Z,3.50
2023-01-15T15:32:12.664Z,3.50
2023-01-15T15:35:25.205Z,3.50
2023-01-15T15:38:23.691Z,3.50
2023-01-15T15:41:42.269Z,3.50
2023-01-15T15:45:18.372Z,3.50
2023-01-15T15:48:42.819Z,3.60
2023-01-15T15:51:50.372Z,3.60
2023-01-15T15:54:57.810Z,3.60
2023-01-15T15:57:59.521Z,3.60
2023-01-15T16:00:57.570Z,3.50
2023-01-15T16:03:55.039Z,3.60
2023-01-15T16:06:52.127Z,3.50
2023-01-15T16:09:51.599Z,3.50
2023-01-15T16:12:51.174Z,3.50
2023-01-15T16:15:50.323Z,3.50
2023-01-15T16:18:51.987Z,3.50
2023-01-15T16:21:49.859Z,3.50
2023-01-15T16:24:54.778Z,3.50
2023-01-15T16:27:51.919Z,3.50
2023-01-15T16:30:56.133Z,3.40
2023-01-15T16:33:57.899Z,3.30
2023-01-15T16:36:54.707Z,3.40
2023-01-15T16:39:51.832Z,3.50
2023-01-15T16:42:59.015Z,3.40
2023-01-15T16:45:55.669Z,3.40
2023-01-15T16:49:24.697Z,3.40
2023-01-15T16:52:51.530Z,3.40
2023-01-15T16:55:50.155Z,3.40
2023-01-15T16:58:47.268Z,3.50
2023-01-15T17:01:48.469Z,3.60
2023-01-15T17:04:46.155Z,3.50
2023-01-15T17:07:47.253Z,3.40
2023-01-15T17:10:58.251Z,3.50
2023-01-15T17:14:22.285Z,3.40
2023-01-15T17:17:21.949Z,3.40
2023-01-15T17:20:20.574Z,3.40
2023-01-15T17:23:18.941Z,3.40
2023-01-15T17:26:18.766Z,3.40
2023-01-15T17:29:15.607Z,3.40
2023-01-15T17:32:15.695Z,3.40
2023-01-15T17:35:28.890Z,3.40
2023-01-15T17:38:25.617Z,3.40
2023-01-15T17:41:22.726Z,3.50
2023-01-15T17:44:19.477Z,3.50
2023-01-15T17:47:16.282Z,3.40
2023-01-15T17:50:14.438Z,3.40
2023-01-15T17:53:11.210Z,3.60
2023-01-15T17:56:27.205Z,3.50
2023-01-15T17:59:42.590Z,3.40
2023-01-15T18:02:59.671Z,3.40
2023-01-15T18:05:56.486Z,3.40
2023-01-15T18:08:55.475Z,3.40
2023-01-15T18:11:52.333Z,3.50
2023-01-15T18:14:49.520Z,3.40
2023-01-15T18:17:46.488Z,3.50
2023-01-15T18:20:43.253Z,3.40
2023-01-15T18:23:40.702Z,3.40
2023-01-15T18:26:39.013Z,3.30
2023-01-15T18:29:40.046Z,3.30
2023-01-15T18:32:37.721Z,3.30
2023-01-15T18:35:34.803Z,3.30
2023-01-15T18:38:33.613Z,3.40
2023-01-15T18:41:36.331Z,3.40
2023-01-15T18:44:51.948Z,3.40
2023-01-15T18:47:50.805Z,3.50
2023-01-15T18:50:48.983Z,3.40
2023-01-15T18:53:48.950Z,3.40
2023-01-15T18:56:48.369Z,3.40
2023-01-15T18:59:47.380Z,3.30
2023-01-15T19:02:45.229Z,3.30
2023-01-15T19:05:42.046Z,3.30
2023-01-15T19:08:38.807Z,3.30
2023-01-15T19:11:35.735Z,3.40
2023-01-15T19:14:51.532Z,3.40
2023-01-15T19:18:06.853Z,3.30
2023-01-15T19:21:08.043Z,3.20
2023-01-15T19:24:05.205Z,3.20
2023-01-15T19:27:03.088Z,3.20
2023-01-15T19:30:00.347Z,3.00
2023-01-15T19:32:57.205Z,3.10
2023-01-15T19:35:53.970Z,3.00
2023-01-15T19:38:50.773Z,3.00
2023-01-15T19:42:06.444Z,3.00
2023-01-15T19:45:23.936Z,3.00
2023-01-15T19:48:39.550Z,3.00
2023-01-15T19:52:05.543Z,3.10
2023-01-15T19:55:03.970Z,3.00
2023-01-15T19:58:05.447Z,3.10
2023-01-15T20:01:02.354Z,3.10
2023-01-15T20:03:59.300Z,3.10
2023-01-15T20:06:58.643Z,3.10
2023-01-15T20:09:55.389Z,3.00
2023-01-15T20:13:11.194Z,3.10
2023-01-15T20:16:13.118Z,3.10
2023-01-15T20:19:09.880Z,3.10
2023-01-15T20:22:06.757Z,3.10
2023-01-15T20:25:03.961Z,3.10
2023-01-15T20:28:00.762Z,3.20
2023-01-15T20:30:57.632Z,3.20
2023-01-15T20:33:57.719Z,3.20
2023-01-15T20:36:54.488Z,3.20
2023-01-15T20:39:52.372Z,3.20
2023-01-15T20:43:07.702Z,3.20
2023-01-15T20:46:12.556Z,3.20
2023-01-15T20:49:28.908Z,3.20
2023-01-15T20:52:25.877Z,3.20
2023-01-15T20:55:24.348Z,3.30
2023-01-15T20:58:21.343Z,3.30
2023-01-15T21:01:18.220Z,3.30
2023-01-15T21:04:15.070Z,3.30
2023-01-15T21:07:11.853Z,3.20
2023-01-15T21:10:12.059Z,3.20
2023-01-15T21:13:08.918Z,3.20
2023-01-15T21:16:06.250Z,3.20
2023-01-15T21:19:04.791Z,3.20
2023-01-15T21:22:01.871Z,3.20
2023-01-15T21:24:58.961Z,3.10
2023-01-15T21:27:55.757Z,3.10
2023-01-15T21:30:52.496Z,3.10
2023-01-15T21:33:49.265Z,3.10
2023-01-15T21:36:46.120Z,3.10
2023-01-15T21:39:42.887Z,3.00
2023-01-15T21:42:57.866Z,3.10
2023-01-15T21:46:05.286Z,3.10
2023-01-15T21:49:02.070Z,3.10
2023-01-15T21:52:04.090Z,3.20
2023-01-15T21:55:00.874Z,3.20
2023-01-15T21:57:58.711Z,3.10
2023-01-15T22:00:57.136Z,3.00
2023-01-15T22:03:53.926Z,3.10
2023-01-15T22:06:51.529Z,3.00
2023-01-15T22:09:48.350Z,3.00
2023-01-15T22:12:45.193Z,3.00
2023-01-15T22:15:41.986Z,3.00
2023-01-15T22:18:40.836Z,3.00
2023-01-15T22:21:37.920Z,2.90
2023-01-15T22:24:36.071Z,3.00
2023-01-15T22:27:34.602Z,3.10
2023-01-15T22:30:31.405Z,3.00
2023-01-15T22:33:28.183Z,3.00
2023-01-15T22:36:27.004Z,3.00
2023-01-15T22:39:24.954Z,3.00
2023-01-15T22:42:24.326Z,3.00
2023-01-15T22:45:24.754Z,2.90
2023-01-15T22:48:21.510Z,2.90
2023-01-15T22:51:18.250Z,2.90
2023-01-15T22:54:15.021Z,2.90
2023-01-15T22:57:13.115Z,2.90
2023-01-15T23:00:11.449Z,2.90
2023-01-15T23:03:08.655Z,2.80
2023-01-15T23:06:09.922Z,2.80
2023-01-15T23:09:06.765Z,2.80
2023-01-15T23:12:03.610Z,2.80
2023-01-15T23:15:00.381Z,2.80
2023-01-15T23:17:57.109Z,2.90
2023-01-15T23:20:53.857Z,2.80
2023-01-15T23:23:58.423Z,2.90
2023-01-15T23:26:55.171Z,2.90
2023-01-15T23:29:51.920Z,2.80
2023-01-15T23:32:48.655Z,2.80
2023-01-15T23:35:46.163Z,2.70
2023-01-15T23:38:44.292Z,2.70
2023-01-15T23:41:59.809Z,2.70
2023-01-15T23:45:15.187Z,2.60
2023-01-15T23:48:11.958Z,2.60
2023-01-15T23:51:08.926Z,2.60
2023-01-15T23:54:05.992Z,2.60
2023-01-15T23:57:02.880Z,2.50
2023-01-15T23:59:59.650Z,2.40
